Lafayette, New Jersey
Current Conditions -  °F | °C
As of 6:53 AM on Saturday 22 Nov 2014 (Local Time) from KFWN Reporting Station
Clear Clear  
Wind Chill: 12°   Ceiling: Unl
Heat Index: 12°   Visibility: 10mi
Dew Point:   Wind: 0mph
Humidity: 84%   Direction: NA
Pressure: 30.44"   Gusts: NA
Location:  41.1°N, 74.69°W
Report Text: KFWN 221153Z AUTO 00000KT 10SM CLR M11/M13 A3044 RMK AO2 SLP315 T11111133 11100 21111 57003
Loading
Personal Weather Stations






























Interactive Weather Map New forecast layout! Learn more

10-Day Weather Forecast

Advertisements
Track Severe Weather on mobile